KRNH/RNH METAR and TAF weather

Enter ICAO airport designator
Station Type Date Time Source
KRNH METAR 2019/04/24 15:55 UTC NOAA

KRNH 241555Z AUTO 21016G22KT 10SM CLR 17/01 A2985 RMK AO2 T01650009


Station Type Date Time Source
KRNH Decoded METAR 2019/04/24 15:55 UTC NOAA

New Richmond, New Richmond Municipal Airport, WI, United States (KRNH) 45-08-54N 092-32-17W
Apr 24, 2019 - 11:55 AM EDT / 2019.04.24 1555 UTC
Wind: from the SSW (210 degrees) at 18 MPH (16 KT) gusting to 25 MPH (22 KT):0
Visibility: 10 mile(s):0
Sky conditions: clear
Temperature: 61.7 F (16.5 C)
Dew Point: 33.6 F (0.9 C)
Relative Humidity: 34%
Pressure (altimeter): 29.85 in. Hg (1010 hPa)
ob: KRNH 241555Z AUTO 21016G22KT 10SM CLR 17/01 A2985 RMK AO2 T01650009
cycle: 16

Station Type Date Time Source
KRNH TAF 2019/04/24 12:22 UTC NOAA

TAF KRNH 241120Z 2412/2512 18005KT P6SM SCT250
FM241600 20012G23KT P6SM SCT250
FM250200 21008KT P6SM VCSH BKN070
FM250800 VRB04KT P6SM SCT100

Example: see airport list